AEE13 LGAV-EDDF
Flight info
| Callsign | AEE13 |
|---|---|
| Flight time | 2h 33m |
| Altitude | 34000 |
| Route | KOR UL53 ELVAS DCT TUMBO/N0448F360 DCT OVVER DCT RODON DCT NERRA DCT SIRMI DCT SIMBA DCT AKINI T161 DEBHI DEBHI1C |
| Aircraft | A320/M-SDE3FGHIRWY/LB1 |
Departure
| Time | 2026-04-15 13:13 |
|---|---|
| Airport | Athens Eleftherios Venizelos International Airport (LGAV) |
Arrival
| Time | 2026-04-15 15:46 |
|---|---|
| Airport | Frankfurt Main Airport (EDDF) |
| Time | Latitude | Longitude | Altitude | Speed | Heading |
|---|---|---|---|---|---|
| 2026-04-15 12:40 | 37.93794 | 23.95020 | 300 ft | 0 kts | 306° |
| 2026-04-15 12:41 | 37.93798 | 23.95013 | 302 ft | 0 kts | 307° |
| 2026-04-15 12:41 | 37.93837 | 23.95058 | 300 ft | 0 kts | 307° |
| 2026-04-15 13:00 | 37.93830 | 23.95070 | 303 ft | 4 kts | 307° |
| 2026-04-15 13:00 | 37.93814 | 23.95097 | 304 ft | 4 kts | 305° |
| 2026-04-15 13:00 | 37.93802 | 23.95126 | 300 ft | 4 kts | 277° |
| 2026-04-15 13:00 | 37.93806 | 23.95155 | 302 ft | 4 kts | 224° |
| 2026-04-15 13:01 | 37.93810 | 23.95161 | 300 ft | 0 kts | 217° |
| 2026-04-15 13:04 | 37.93791 | 23.95143 | 301 ft | 10 kts | 217° |
| 2026-04-15 13:04 | 37.93693 | 23.95050 | 301 ft | 21 kts | 217° |
| 2026-04-15 13:05 | 37.93575 | 23.94937 | 301 ft | 16 kts | 218° |
| 2026-04-15 13:05 | 37.93483 | 23.94846 | 303 ft | 17 kts | 218° |
| 2026-04-15 13:05 | 37.93391 | 23.94758 | 302 ft | 17 kts | 218° |
| 2026-04-15 13:05 | 37.93294 | 23.94666 | 305 ft | 18 kts | 217° |
| 2026-04-15 13:06 | 37.93190 | 23.94565 | 302 ft | 20 kts | 217° |
| 2026-04-15 13:06 | 37.93177 | 23.94466 | 302 ft | 13 kts | 309° |
| 2026-04-15 13:06 | 37.93236 | 23.94374 | 301 ft | 14 kts | 308° |
| 2026-04-15 13:06 | 37.93286 | 23.94264 | 304 ft | 15 kts | 270° |
| 2026-04-15 13:07 | 37.93214 | 23.94165 | 301 ft | 16 kts | 214° |
| 2026-04-15 13:07 | 37.93120 | 23.94076 | 301 ft | 17 kts | 216° |
| 2026-04-15 13:07 | 37.93123 | 23.93955 | 302 ft | 16 kts | 307° |
| 2026-04-15 13:07 | 37.93197 | 23.93832 | 302 ft | 18 kts | 307° |
| 2026-04-15 13:08 | 37.93278 | 23.93699 | 302 ft | 20 kts | 308° |
| 2026-04-15 13:08 | 37.93367 | 23.93553 | 301 ft | 22 kts | 306° |
| 2026-04-15 13:08 | 37.93422 | 23.93383 | 302 ft | 21 kts | 240° |
| 2026-04-15 13:08 | 37.93307 | 23.93270 | 302 ft | 22 kts | 216° |
| 2026-04-15 13:09 | 37.93183 | 23.93152 | 298 ft | 23 kts | 218° |
| 2026-04-15 13:09 | 37.93050 | 23.93025 | 300 ft | 25 kts | 217° |
| 2026-04-15 13:09 | 37.92910 | 23.92890 | 299 ft | 26 kts | 217° |
| 2026-04-15 13:09 | 37.92764 | 23.92748 | 300 ft | 27 kts | 218° |
| 2026-04-15 13:10 | 37.92629 | 23.92628 | 303 ft | 19 kts | 216° |
| 2026-04-15 13:10 | 37.92520 | 23.92525 | 302 ft | 20 kts | 217° |
| 2026-04-15 13:10 | 37.92407 | 23.92411 | 302 ft | 21 kts | 218° |
| 2026-04-15 13:10 | 37.92282 | 23.92295 | 301 ft | 23 kts | 216° |
| 2026-04-15 13:11 | 37.92166 | 23.92186 | 303 ft | 17 kts | 216° |
| 2026-04-15 13:11 | 37.92102 | 23.92075 | 301 ft | 17 kts | 285° |
| 2026-04-15 13:11 | 37.92176 | 23.91966 | 307 ft | 16 kts | 321° |
| 2026-04-15 13:11 | 37.92257 | 23.91997 | 303 ft | 2 kts | 34° |
| 2026-04-15 13:12 | 37.92325 | 23.92060 | 306 ft | 41 kts | 37° |
| 2026-04-15 13:12 | 37.92724 | 23.92438 | 302 ft | 100 kts | 37° |
| 2026-04-15 13:13 | 37.93417 | 23.93098 | 293 ft | 146 kts | 37° |
| 2026-04-15 13:13 | 37.94293 | 23.93941 | 543 ft | 160 kts | 37° |
| 2026-04-15 13:13 | 37.95183 | 23.94758 | 1146 ft | 159 kts | 36° |
| 2026-04-15 13:13 | 37.96091 | 23.95580 | 1725 ft | 160 kts | 36° |
| 2026-04-15 13:14 | 37.97012 | 23.96417 | 2147 ft | 170 kts | 36° |
| 2026-04-15 13:14 | 37.98029 | 23.97345 | 2413 ft | 189 kts | 35° |
| 2026-04-15 13:14 | 37.99116 | 23.98339 | 2883 ft | 195 kts | 34° |
| 2026-04-15 13:14 | 38.00221 | 23.99357 | 3458 ft | 197 kts | 35° |
| 2026-04-15 13:15 | 38.01341 | 24.00387 | 3985 ft | 202 kts | 35° |
| 2026-04-15 13:15 | 38.02491 | 24.01448 | 4576 ft | 206 kts | 36° |
| 2026-04-15 13:15 | 38.03659 | 24.02523 | 5181 ft | 210 kts | 37° |
| 2026-04-15 13:15 | 38.04857 | 24.03628 | 5763 ft | 214 kts | 37° |
| 2026-04-15 13:16 | 38.06070 | 24.04749 | 6352 ft | 218 kts | 39° |
| 2026-04-15 13:16 | 38.07382 | 24.05760 | 6889 ft | 227 kts | 23° |
| 2026-04-15 13:16 | 38.08960 | 24.06117 | 7421 ft | 236 kts | 359° |
| 2026-04-15 13:16 | 38.10572 | 24.05629 | 7940 ft | 245 kts | 334° |
| 2026-04-15 13:17 | 38.11971 | 24.04251 | 8146 ft | 268 kts | 306° |
| 2026-04-15 13:17 | 38.12780 | 24.02060 | 8376 ft | 285 kts | 277° |
| 2026-04-15 13:17 | 38.12678 | 23.99533 | 8778 ft | 291 kts | 248° |
| 2026-04-15 13:17 | 38.11651 | 23.97366 | 9391 ft | 287 kts | 219° |
| 2026-04-15 13:18 | 38.10136 | 23.95716 | 10080 ft | 290 kts | 221° |
| 2026-04-15 13:18 | 38.08924 | 23.93659 | 10779 ft | 297 kts | 244° |
| 2026-04-15 13:18 | 38.08476 | 23.91096 | 11499 ft | 300 kts | 263° |
| 2026-04-15 13:18 | 38.08215 | 23.88428 | 11914 ft | 313 kts | 258° |
| 2026-04-15 13:19 | 38.07828 | 23.85623 | 12044 ft | 333 kts | 258° |
| 2026-04-15 13:19 | 38.07404 | 23.82638 | 12198 ft | 352 kts | 258° |
| 2026-04-15 13:19 | 38.06948 | 23.79552 | 12641 ft | 359 kts | 258° |
| 2026-04-15 13:19 | 38.06470 | 23.76420 | 13231 ft | 362 kts | 258° |
| 2026-04-15 13:20 | 38.05977 | 23.73269 | 13814 ft | 366 kts | 257° |
| 2026-04-15 13:20 | 38.05475 | 23.70097 | 14433 ft | 368 kts | 257° |
| 2026-04-15 13:20 | 38.04966 | 23.66912 | 15006 ft | 370 kts | 257° |
| 2026-04-15 13:20 | 38.04449 | 23.63701 | 15575 ft | 372 kts | 257° |
| 2026-04-15 13:21 | 38.03930 | 23.60481 | 16111 ft | 374 kts | 257° |
| 2026-04-15 13:21 | 38.03409 | 23.57239 | 16647 ft | 377 kts | 257° |
| 2026-04-15 13:21 | 38.02886 | 23.53970 | 17192 ft | 379 kts | 257° |
| 2026-04-15 13:21 | 38.02363 | 23.50693 | 17755 ft | 381 kts | 257° |
| 2026-04-15 13:22 | 38.01834 | 23.47393 | 18304 ft | 383 kts | 257° |
| 2026-04-15 13:22 | 38.01296 | 23.44066 | 18841 ft | 386 kts | 257° |
| 2026-04-15 13:22 | 38.00754 | 23.40723 | 19373 ft | 388 kts | 257° |
| 2026-04-15 13:22 | 38.00209 | 23.37364 | 19903 ft | 391 kts | 257° |
| 2026-04-15 13:23 | 37.99659 | 23.33974 | 20400 ft | 394 kts | 257° |
| 2026-04-15 13:23 | 37.99107 | 23.30568 | 20863 ft | 396 kts | 257° |
| 2026-04-15 13:23 | 37.98548 | 23.27132 | 21300 ft | 399 kts | 257° |
| 2026-04-15 13:23 | 37.97984 | 23.23674 | 21739 ft | 401 kts | 257° |
| 2026-04-15 13:24 | 37.97418 | 23.20200 | 22145 ft | 404 kts | 257° |
| 2026-04-15 13:24 | 37.96850 | 23.16707 | 22528 ft | 406 kts | 257° |
| 2026-04-15 13:24 | 37.96282 | 23.13235 | 22900 ft | 408 kts | 256° |
| 2026-04-15 13:24 | 37.95701 | 23.09706 | 23267 ft | 411 kts | 256° |
| 2026-04-15 13:25 | 37.95113 | 23.06150 | 23640 ft | 413 kts | 256° |
| 2026-04-15 13:25 | 37.94525 | 23.02585 | 23982 ft | 415 kts | 256° |
| 2026-04-15 13:25 | 37.94098 | 22.98955 | 24308 ft | 419 kts | 265° |
| 2026-04-15 13:25 | 37.94207 | 22.95249 | 24641 ft | 425 kts | 275° |
| 2026-04-15 13:26 | 37.94884 | 22.91584 | 24951 ft | 431 kts | 286° |
| 2026-04-15 13:26 | 37.96135 | 22.88100 | 25256 ft | 438 kts | 297° |
| 2026-04-15 13:26 | 37.97851 | 22.84873 | 25565 ft | 443 kts | 302° |
| 2026-04-15 13:26 | 37.99622 | 22.81675 | 25859 ft | 445 kts | 301° |
| 2026-04-15 13:27 | 38.01398 | 22.78449 | 26150 ft | 446 kts | 301° |
| 2026-04-15 13:27 | 38.03169 | 22.75215 | 26504 ft | 447 kts | 301° |
| 2026-04-15 13:27 | 38.04935 | 22.71983 | 26934 ft | 445 kts | 300° |
| 2026-04-15 13:27 | 38.06696 | 22.68765 | 27363 ft | 444 kts | 300° |
| 2026-04-15 13:28 | 38.08458 | 22.65551 | 27777 ft | 443 kts | 300° |
| 2026-04-15 13:28 | 38.10212 | 22.62348 | 28198 ft | 441 kts | 300° |
| 2026-04-15 13:28 | 38.11960 | 22.59154 | 28619 ft | 440 kts | 300° |
| 2026-04-15 13:28 | 38.13707 | 22.55967 | 29030 ft | 439 kts | 300° |
| 2026-04-15 13:29 | 38.15448 | 22.52789 | 29428 ft | 438 kts | 300° |
| 2026-04-15 13:29 | 38.17182 | 22.49614 | 29818 ft | 437 kts | 300° |
| 2026-04-15 13:29 | 38.18907 | 22.46446 | 30224 ft | 436 kts | 300° |
| 2026-04-15 13:29 | 38.20625 | 22.43286 | 30619 ft | 434 kts | 300° |
| 2026-04-15 13:30 | 38.22343 | 22.40129 | 31036 ft | 432 kts | 300° |
| 2026-04-15 13:30 | 38.24047 | 22.36995 | 31446 ft | 430 kts | 299° |
| 2026-04-15 13:30 | 38.25747 | 22.33868 | 31867 ft | 428 kts | 299° |
| 2026-04-15 13:30 | 38.27437 | 22.30753 | 32285 ft | 426 kts | 299° |
| 2026-04-15 13:31 | 38.29111 | 22.27662 | 32700 ft | 423 kts | 299° |
| 2026-04-15 13:31 | 38.30778 | 22.24583 | 33115 ft | 421 kts | 299° |
| 2026-04-15 13:31 | 38.32435 | 22.21520 | 33530 ft | 419 kts | 299° |
| 2026-04-15 13:31 | 38.34080 | 22.18480 | 33910 ft | 417 kts | 298° |
| 2026-04-15 13:32 | 38.35700 | 22.15479 | 34049 ft | 416 kts | 298° |
| 2026-04-15 13:32 | 38.37369 | 22.12374 | 34068 ft | 424 kts | 298° |
| 2026-04-15 13:32 | 38.40708 | 22.06144 | 34064 ft | 431 kts | 298° |
| 2026-04-15 13:33 | 38.44104 | 21.99827 | 34064 ft | 432 kts | 299° |
| 2026-04-15 13:33 | 38.47500 | 21.93505 | 34055 ft | 432 kts | 298° |
| 2026-04-15 13:34 | 38.50907 | 21.87177 | 34052 ft | 434 kts | 301° |
| 2026-04-15 13:34 | 38.55295 | 21.81746 | 34049 ft | 448 kts | 319° |
| 2026-04-15 13:35 | 38.60470 | 21.77275 | 34048 ft | 450 kts | 320° |
| 2026-04-15 13:35 | 38.65656 | 21.72783 | 34047 ft | 450 kts | 319° |
| 2026-04-15 13:36 | 38.70839 | 21.68281 | 34045 ft | 451 kts | 319° |
| 2026-04-15 13:36 | 38.76026 | 21.63767 | 34053 ft | 451 kts | 319° |
| 2026-04-15 13:37 | 38.81225 | 21.59230 | 34057 ft | 452 kts | 319° |
| 2026-04-15 13:37 | 38.86423 | 21.54687 | 34063 ft | 452 kts | 319° |
| 2026-04-15 13:38 | 38.91626 | 21.50143 | 34064 ft | 453 kts | 319° |
| 2026-04-15 13:38 | 38.96836 | 21.45589 | 34070 ft | 453 kts | 319° |
| 2026-04-15 13:39 | 39.02045 | 21.41017 | 34076 ft | 453 kts | 319° |
| 2026-04-15 13:39 | 39.07247 | 21.36436 | 34084 ft | 453 kts | 318° |
| 2026-04-15 13:40 | 39.12451 | 21.31844 | 34085 ft | 454 kts | 318° |
| 2026-04-15 13:40 | 39.17658 | 21.27251 | 34088 ft | 454 kts | 318° |
| 2026-04-15 13:41 | 39.22860 | 21.22641 | 34089 ft | 454 kts | 318° |
| 2026-04-15 13:41 | 39.28067 | 21.18025 | 34097 ft | 454 kts | 318° |
| 2026-04-15 13:42 | 39.33275 | 21.13403 | 34100 ft | 454 kts | 318° |
| 2026-04-15 13:42 | 39.38477 | 21.08783 | 34110 ft | 454 kts | 318° |
| 2026-04-15 13:43 | 39.43687 | 21.04151 | 34119 ft | 454 kts | 318° |
| 2026-04-15 13:43 | 39.48840 | 20.99543 | 34122 ft | 453 kts | 318° |
| 2026-04-15 13:44 | 39.54035 | 20.94901 | 34131 ft | 454 kts | 318° |
| 2026-04-15 13:44 | 39.58387 | 20.90999 | 34135 ft | 454 kts | 317° |
| 2026-04-15 13:45 | 39.64417 | 20.85584 | 34139 ft | 454 kts | 317° |
| 2026-04-15 13:47 | 39.84291 | 20.67670 | 34146 ft | 453 kts | 317° |
| 2026-04-15 13:47 | 39.89430 | 20.63023 | 34152 ft | 453 kts | 317° |
| 2026-04-15 13:48 | 39.94598 | 20.58327 | 34149 ft | 453 kts | 317° |
| 2026-04-15 13:48 | 39.99755 | 20.53630 | 34149 ft | 452 kts | 317° |
| 2026-04-15 13:49 | 40.04907 | 20.48937 | 34152 ft | 452 kts | 317° |
| 2026-04-15 13:49 | 40.10034 | 20.44199 | 34151 ft | 450 kts | 316° |
| 2026-04-15 13:50 | 40.15057 | 20.39339 | 34139 ft | 448 kts | 315° |
| 2026-04-15 13:50 | 40.20052 | 20.34457 | 34134 ft | 449 kts | 315° |
| 2026-04-15 13:51 | 40.25071 | 20.29583 | 34131 ft | 448 kts | 315° |
| 2026-04-15 13:51 | 40.30085 | 20.24727 | 34127 ft | 448 kts | 315° |
| 2026-04-15 13:52 | 40.35100 | 20.19861 | 34129 ft | 449 kts | 315° |
| 2026-04-15 13:52 | 40.40123 | 20.14988 | 34131 ft | 449 kts | 315° |
| 2026-04-15 13:53 | 40.45140 | 20.10106 | 34130 ft | 449 kts | 315° |
| 2026-04-15 13:53 | 40.50150 | 20.05217 | 34133 ft | 448 kts | 315° |
| 2026-04-15 13:54 | 40.55153 | 20.00315 | 34134 ft | 448 kts | 316° |
| 2026-04-15 13:54 | 40.60157 | 19.95417 | 34120 ft | 449 kts | 316° |
| 2026-04-15 13:55 | 40.65164 | 19.90508 | 34111 ft | 450 kts | 316° |
| 2026-04-15 13:55 | 40.70182 | 19.85574 | 34101 ft | 451 kts | 316° |
| 2026-04-15 13:56 | 40.75207 | 19.80617 | 34092 ft | 452 kts | 316° |
| 2026-04-15 13:56 | 40.80258 | 19.75635 | 34087 ft | 453 kts | 316° |
| 2026-04-15 13:57 | 40.85310 | 19.70645 | 34083 ft | 454 kts | 316° |
| 2026-04-15 13:57 | 40.90361 | 19.65635 | 34082 ft | 455 kts | 316° |
| 2026-04-15 13:58 | 40.95421 | 19.60601 | 34081 ft | 455 kts | 316° |
| 2026-04-15 13:58 | 41.00453 | 19.55604 | 34077 ft | 456 kts | 316° |
| 2026-04-15 13:59 | 41.05513 | 19.50562 | 34076 ft | 455 kts | 317° |
| 2026-04-15 13:59 | 41.10578 | 19.45505 | 34074 ft | 456 kts | 317° |
| 2026-04-15 14:00 | 41.15641 | 19.40441 | 34073 ft | 457 kts | 317° |
| 2026-04-15 14:00 | 41.20710 | 19.35350 | 34076 ft | 457 kts | 317° |
| 2026-04-15 14:01 | 41.28330 | 19.27695 | 34086 ft | 458 kts | 317° |
| 2026-04-15 14:02 | 41.33412 | 19.22572 | 34089 ft | 459 kts | 317° |
| 2026-04-15 14:02 | 41.38495 | 19.17437 | 34096 ft | 459 kts | 317° |
| 2026-04-15 14:03 | 41.43585 | 19.12290 | 34096 ft | 459 kts | 317° |
| 2026-04-15 14:03 | 41.48665 | 19.07111 | 34090 ft | 459 kts | 317° |
| 2026-04-15 14:04 | 41.53682 | 19.01849 | 34089 ft | 459 kts | 316° |
| 2026-04-15 14:04 | 41.58689 | 18.96560 | 34092 ft | 459 kts | 317° |
| 2026-04-15 14:05 | 41.63705 | 18.91272 | 34083 ft | 459 kts | 317° |
| 2026-04-15 14:05 | 41.68737 | 18.85976 | 34202 ft | 460 kts | 317° |
| 2026-04-15 14:05 | 41.71214 | 18.83364 | 34523 ft | 459 kts | 317° |
| 2026-04-15 14:06 | 41.73718 | 18.80723 | 34832 ft | 458 kts | 317° |
| 2026-04-15 14:06 | 41.76222 | 18.78080 | 35106 ft | 458 kts | 317° |
| 2026-04-15 14:06 | 41.78720 | 18.75441 | 35363 ft | 458 kts | 318° |
| 2026-04-15 14:06 | 41.81221 | 18.72795 | 35612 ft | 457 kts | 318° |
| 2026-04-15 14:07 | 41.83712 | 18.70154 | 35841 ft | 457 kts | 318° |
| 2026-04-15 14:07 | 41.86210 | 18.67504 | 36047 ft | 458 kts | 318° |
| 2026-04-15 14:07 | 41.88709 | 18.64852 | 36083 ft | 458 kts | 318° |
| 2026-04-15 14:08 | 41.93699 | 18.59542 | 36082 ft | 458 kts | 318° |
| 2026-04-15 14:08 | 41.98692 | 18.54217 | 36082 ft | 458 kts | 318° |
| 2026-04-15 14:09 | 42.03680 | 18.48890 | 36081 ft | 457 kts | 319° |
| 2026-04-15 14:09 | 42.08647 | 18.43570 | 36083 ft | 457 kts | 319° |
| 2026-04-15 14:10 | 42.13618 | 18.38247 | 36083 ft | 457 kts | 319° |
| 2026-04-15 14:10 | 42.18589 | 18.32908 | 36083 ft | 457 kts | 319° |
| 2026-04-15 14:11 | 42.23536 | 18.27583 | 36085 ft | 457 kts | 319° |
| 2026-04-15 14:11 | 42.28514 | 18.22224 | 36083 ft | 458 kts | 319° |
| 2026-04-15 14:12 | 42.33487 | 18.16842 | 36087 ft | 458 kts | 319° |
| 2026-04-15 14:12 | 42.38454 | 18.11455 | 36090 ft | 458 kts | 319° |
| 2026-04-15 14:13 | 42.43418 | 18.06066 | 36091 ft | 457 kts | 319° |
| 2026-04-15 14:13 | 42.48373 | 18.00673 | 36092 ft | 457 kts | 319° |
| 2026-04-15 14:14 | 42.53337 | 17.95260 | 36095 ft | 458 kts | 319° |
| 2026-04-15 14:14 | 42.58291 | 17.89846 | 36096 ft | 458 kts | 319° |
| 2026-04-15 14:15 | 42.63242 | 17.84421 | 36100 ft | 457 kts | 319° |
| 2026-04-15 14:15 | 42.68194 | 17.78983 | 36100 ft | 457 kts | 319° |
| 2026-04-15 14:16 | 42.73135 | 17.73554 | 36101 ft | 457 kts | 319° |
| 2026-04-15 14:16 | 42.78069 | 17.68117 | 36101 ft | 457 kts | 319° |
| 2026-04-15 14:17 | 42.83001 | 17.62657 | 36100 ft | 456 kts | 319° |
| 2026-04-15 14:17 | 42.87885 | 17.57246 | 36095 ft | 456 kts | 319° |
| 2026-04-15 14:18 | 42.92850 | 17.51872 | 36095 ft | 455 kts | 321° |
| 2026-04-15 14:18 | 42.98012 | 17.46849 | 36094 ft | 456 kts | 323° |
| 2026-04-15 14:19 | 43.03237 | 17.41945 | 36094 ft | 455 kts | 323° |
| 2026-04-15 14:19 | 43.08416 | 17.36961 | 36093 ft | 455 kts | 323° |
| 2026-04-15 14:20 | 43.13558 | 17.31907 | 36100 ft | 455 kts | 322° |
| 2026-04-15 14:20 | 43.18691 | 17.26850 | 36100 ft | 454 kts | 322° |
| 2026-04-15 14:21 | 43.23825 | 17.21799 | 36100 ft | 454 kts | 322° |
| 2026-04-15 14:21 | 43.28959 | 17.16746 | 36105 ft | 454 kts | 323° |
| 2026-04-15 14:22 | 43.34093 | 17.11684 | 36111 ft | 454 kts | 322° |
| 2026-04-15 14:22 | 43.39217 | 17.06621 | 36113 ft | 454 kts | 322° |
| 2026-04-15 14:23 | 43.44346 | 17.01535 | 36115 ft | 454 kts | 322° |
| 2026-04-15 14:23 | 43.49456 | 16.96444 | 36117 ft | 453 kts | 322° |
| 2026-04-15 14:24 | 43.54564 | 16.91352 | 36122 ft | 453 kts | 322° |
| 2026-04-15 14:24 | 43.59680 | 16.86259 | 36120 ft | 453 kts | 322° |
| 2026-04-15 14:25 | 43.64755 | 16.81199 | 36124 ft | 453 kts | 322° |
| 2026-04-15 14:25 | 43.69852 | 16.76091 | 36129 ft | 452 kts | 322° |
| 2026-04-15 14:26 | 43.74940 | 16.70976 | 36126 ft | 453 kts | 322° |
| 2026-04-15 14:26 | 43.80035 | 16.65843 | 36128 ft | 453 kts | 322° |
| 2026-04-15 14:27 | 43.85129 | 16.60704 | 36127 ft | 453 kts | 322° |
| 2026-04-15 14:27 | 43.90216 | 16.55575 | 36128 ft | 452 kts | 322° |
| 2026-04-15 14:28 | 43.95305 | 16.50429 | 36118 ft | 452 kts | 322° |
| 2026-04-15 14:28 | 44.00381 | 16.45268 | 36126 ft | 452 kts | 322° |
| 2026-04-15 14:29 | 44.05451 | 16.40113 | 36124 ft | 451 kts | 322° |
| 2026-04-15 14:29 | 44.10512 | 16.34955 | 36133 ft | 451 kts | 322° |
| 2026-04-15 14:30 | 44.15634 | 16.29912 | 36140 ft | 452 kts | 329° |
| 2026-04-15 14:30 | 44.21188 | 16.25793 | 36145 ft | 452 kts | 330° |
| 2026-04-15 14:31 | 44.26734 | 16.21671 | 36141 ft | 452 kts | 330° |
| 2026-04-15 14:31 | 44.32279 | 16.17539 | 36147 ft | 452 kts | 330° |
| 2026-04-15 14:32 | 44.37819 | 16.13403 | 36149 ft | 451 kts | 330° |
| 2026-04-15 14:32 | 44.43366 | 16.09258 | 36147 ft | 452 kts | 330° |
| 2026-04-15 14:33 | 44.48904 | 16.05109 | 36150 ft | 452 kts | 330° |
| 2026-04-15 14:33 | 44.54437 | 16.00953 | 36151 ft | 452 kts | 330° |
| 2026-04-15 14:34 | 44.59939 | 15.96815 | 36151 ft | 452 kts | 330° |
| 2026-04-15 14:34 | 44.64579 | 15.93315 | 36150 ft | 451 kts | 330° |
| 2026-04-15 14:35 | 44.70109 | 15.89133 | 36157 ft | 452 kts | 330° |
| 2026-04-15 14:35 | 44.75642 | 15.84941 | 36160 ft | 451 kts | 330° |
| 2026-04-15 14:36 | 44.81166 | 15.80744 | 36166 ft | 451 kts | 330° |
| 2026-04-15 14:36 | 44.86652 | 15.76570 | 36171 ft | 451 kts | 330° |
| 2026-04-15 14:37 | 44.92197 | 15.72342 | 36172 ft | 450 kts | 330° |
| 2026-04-15 14:37 | 44.97673 | 15.68158 | 36179 ft | 450 kts | 330° |
| 2026-04-15 14:38 | 45.03176 | 15.63940 | 36183 ft | 450 kts | 329° |
| 2026-04-15 14:38 | 45.08138 | 15.60132 | 36185 ft | 450 kts | 329° |
| 2026-04-15 14:39 | 45.13629 | 15.55914 | 36197 ft | 449 kts | 329° |
| 2026-04-15 14:39 | 45.19120 | 15.51681 | 36203 ft | 449 kts | 329° |
| 2026-04-15 14:40 | 45.24607 | 15.47442 | 36198 ft | 449 kts | 329° |
| 2026-04-15 14:40 | 45.30093 | 15.43200 | 36198 ft | 449 kts | 329° |
| 2026-04-15 14:41 | 45.35574 | 15.38949 | 36198 ft | 449 kts | 329° |
| 2026-04-15 14:41 | 45.41046 | 15.34693 | 36199 ft | 448 kts | 329° |
| 2026-04-15 14:42 | 45.46520 | 15.30429 | 36195 ft | 448 kts | 329° |
| 2026-04-15 14:42 | 45.51987 | 15.26156 | 36198 ft | 448 kts | 329° |
| 2026-04-15 14:43 | 45.57450 | 15.21881 | 36199 ft | 448 kts | 329° |
| 2026-04-15 14:43 | 45.62912 | 15.17605 | 36198 ft | 448 kts | 329° |
| 2026-04-15 14:44 | 45.68329 | 15.13344 | 36200 ft | 447 kts | 329° |
| 2026-04-15 14:44 | 45.73782 | 15.09045 | 36205 ft | 447 kts | 329° |
| 2026-04-15 14:45 | 45.79236 | 15.04743 | 36206 ft | 447 kts | 329° |
| 2026-04-15 14:45 | 45.84683 | 15.00430 | 36208 ft | 447 kts | 329° |
| 2026-04-15 14:46 | 45.90129 | 14.96101 | 36206 ft | 447 kts | 329° |
| 2026-04-15 14:46 | 45.95567 | 14.91774 | 36204 ft | 447 kts | 329° |
| 2026-04-15 14:47 | 46.01003 | 14.87448 | 36204 ft | 447 kts | 329° |
| 2026-04-15 14:47 | 46.06440 | 14.83108 | 36213 ft | 446 kts | 329° |
| 2026-04-15 14:48 | 46.11862 | 14.78772 | 36218 ft | 445 kts | 329° |
| 2026-04-15 14:48 | 46.17270 | 14.74431 | 36217 ft | 445 kts | 329° |
| 2026-04-15 14:49 | 46.22667 | 14.70084 | 36217 ft | 444 kts | 329° |
| 2026-04-15 14:49 | 46.28068 | 14.65726 | 36216 ft | 444 kts | 329° |
| 2026-04-15 14:50 | 46.33467 | 14.61371 | 36217 ft | 444 kts | 329° |
| 2026-04-15 14:50 | 46.38861 | 14.57008 | 36221 ft | 444 kts | 329° |
| 2026-04-15 14:51 | 46.44244 | 14.52643 | 36222 ft | 444 kts | 329° |
| 2026-04-15 14:51 | 46.49626 | 14.48259 | 36225 ft | 443 kts | 329° |
| 2026-04-15 14:52 | 46.55010 | 14.43867 | 36230 ft | 443 kts | 329° |
| 2026-04-15 14:52 | 46.60381 | 14.39476 | 36235 ft | 443 kts | 329° |
| 2026-04-15 14:53 | 46.65752 | 14.35081 | 36239 ft | 443 kts | 329° |
| 2026-04-15 14:53 | 46.71128 | 14.30671 | 36240 ft | 443 kts | 329° |
| 2026-04-15 14:54 | 46.76489 | 14.26261 | 36242 ft | 443 kts | 329° |
| 2026-04-15 14:54 | 46.81844 | 14.21835 | 36244 ft | 442 kts | 329° |
| 2026-04-15 14:55 | 46.87197 | 14.17411 | 36244 ft | 442 kts | 330° |
| 2026-04-15 14:55 | 46.92547 | 14.12983 | 36245 ft | 441 kts | 330° |
| 2026-04-15 14:56 | 46.97882 | 14.08555 | 36242 ft | 441 kts | 330° |
| 2026-04-15 14:56 | 47.03212 | 14.04120 | 36238 ft | 440 kts | 330° |
| 2026-04-15 14:57 | 47.08494 | 13.99714 | 36236 ft | 439 kts | 330° |
| 2026-04-15 14:57 | 47.13839 | 13.95247 | 36241 ft | 438 kts | 331° |
| 2026-04-15 14:58 | 47.19087 | 13.90845 | 36240 ft | 437 kts | 331° |
| 2026-04-15 14:58 | 47.24393 | 13.86380 | 36237 ft | 436 kts | 331° |
| 2026-04-15 14:59 | 47.29650 | 13.81957 | 36232 ft | 435 kts | 331° |
| 2026-04-15 14:59 | 47.34856 | 13.77560 | 36228 ft | 434 kts | 331° |
| 2026-04-15 15:00 | 47.40082 | 13.73129 | 36222 ft | 433 kts | 331° |
| 2026-04-15 15:00 | 47.45311 | 13.68705 | 36217 ft | 433 kts | 331° |
| 2026-04-15 15:01 | 47.50534 | 13.64280 | 36217 ft | 432 kts | 331° |
| 2026-04-15 15:01 | 47.55760 | 13.59821 | 36218 ft | 432 kts | 331° |
| 2026-04-15 15:02 | 47.60929 | 13.55399 | 36219 ft | 432 kts | 331° |
| 2026-04-15 15:02 | 47.66165 | 13.50919 | 36223 ft | 431 kts | 332° |
| 2026-04-15 15:03 | 47.71309 | 13.46508 | 36226 ft | 429 kts | 333° |
| 2026-04-15 15:03 | 47.76459 | 13.42084 | 36222 ft | 427 kts | 333° |
| 2026-04-15 15:04 | 47.81591 | 13.37670 | 36220 ft | 426 kts | 333° |
| 2026-04-15 15:04 | 47.86710 | 13.33239 | 36217 ft | 425 kts | 333° |
| 2026-04-15 15:05 | 47.91818 | 13.28816 | 36216 ft | 425 kts | 333° |
| 2026-04-15 15:05 | 47.96924 | 13.24388 | 36215 ft | 424 kts | 333° |
| 2026-04-15 15:06 | 48.04564 | 13.17739 | 36218 ft | 423 kts | 333° |
| 2026-04-15 15:06 | 48.09628 | 13.13323 | 36222 ft | 421 kts | 333° |
| 2026-04-15 15:07 | 48.14677 | 13.08898 | 36220 ft | 420 kts | 333° |
| 2026-04-15 15:07 | 48.19710 | 13.04492 | 36217 ft | 419 kts | 333° |
| 2026-04-15 15:08 | 48.24395 | 12.99265 | 36213 ft | 425 kts | 317° |
| 2026-04-15 15:08 | 48.28294 | 12.92665 | 36217 ft | 425 kts | 315° |
| 2026-04-15 15:09 | 48.32216 | 12.86008 | 36219 ft | 426 kts | 315° |
| 2026-04-15 15:09 | 48.36138 | 12.79351 | 36219 ft | 425 kts | 315° |
| 2026-04-15 15:10 | 48.40059 | 12.72680 | 36224 ft | 425 kts | 315° |
| 2026-04-15 15:10 | 48.43970 | 12.65996 | 36225 ft | 425 kts | 315° |
| 2026-04-15 15:11 | 48.47874 | 12.59316 | 36226 ft | 425 kts | 315° |
| 2026-04-15 15:11 | 48.51771 | 12.52615 | 36226 ft | 424 kts | 315° |
| 2026-04-15 15:12 | 48.55662 | 12.45922 | 36225 ft | 424 kts | 315° |
| 2026-04-15 15:12 | 48.59497 | 12.39321 | 36228 ft | 424 kts | 315° |
| 2026-04-15 15:13 | 48.63402 | 12.32561 | 36230 ft | 424 kts | 315° |
| 2026-04-15 15:13 | 48.67271 | 12.25838 | 36230 ft | 423 kts | 315° |
| 2026-04-15 15:14 | 48.71134 | 12.19112 | 36231 ft | 423 kts | 315° |
| 2026-04-15 15:14 | 48.74470 | 12.11716 | 36231 ft | 432 kts | 298° |
| 2026-04-15 15:15 | 48.76018 | 12.02891 | 36226 ft | 442 kts | 284° |
| 2026-04-15 15:15 | 48.77000 | 11.93692 | 36223 ft | 442 kts | 284° |
| 2026-04-15 15:16 | 48.77984 | 11.84506 | 36227 ft | 442 kts | 284° |
| 2026-04-15 15:16 | 48.78969 | 11.75307 | 36226 ft | 442 kts | 284° |
| 2026-04-15 15:17 | 48.79940 | 11.66106 | 36230 ft | 442 kts | 284° |
| 2026-04-15 15:17 | 48.80903 | 11.56901 | 36233 ft | 442 kts | 284° |
| 2026-04-15 15:18 | 48.81857 | 11.47703 | 36236 ft | 441 kts | 284° |
| 2026-04-15 15:18 | 48.82794 | 11.38512 | 36236 ft | 441 kts | 284° |
| 2026-04-15 15:19 | 48.83765 | 11.29336 | 36232 ft | 437 kts | 289° |
| 2026-04-15 15:19 | 48.86049 | 11.20988 | 36228 ft | 424 kts | 307° |
| 2026-04-15 15:20 | 48.89902 | 11.14394 | 36227 ft | 416 kts | 321° |
| 2026-04-15 15:20 | 48.94170 | 11.08457 | 36229 ft | 416 kts | 321° |
| 2026-04-15 15:21 | 48.98431 | 11.02489 | 36229 ft | 416 kts | 320° |
| 2026-04-15 15:21 | 49.02688 | 10.96514 | 36231 ft | 416 kts | 320° |
| 2026-04-15 15:22 | 49.04817 | 10.93517 | 35962 ft | 417 kts | 320° |
| 2026-04-15 15:22 | 49.06954 | 10.90507 | 35184 ft | 419 kts | 320° |
| 2026-04-15 15:22 | 49.09101 | 10.87482 | 34401 ft | 421 kts | 320° |
| 2026-04-15 15:22 | 49.11256 | 10.84439 | 33546 ft | 423 kts | 320° |
| 2026-04-15 15:23 | 49.12686 | 10.82419 | 32945 ft | 425 kts | 320° |
| 2026-04-15 15:23 | 49.14863 | 10.79341 | 32099 ft | 427 kts | 320° |
| 2026-04-15 15:23 | 49.17043 | 10.76248 | 31282 ft | 427 kts | 319° |
| 2026-04-15 15:23 | 49.19223 | 10.73153 | 30335 ft | 430 kts | 319° |
| 2026-04-15 15:24 | 49.21401 | 10.69977 | 29293 ft | 435 kts | 317° |
| 2026-04-15 15:24 | 49.23540 | 10.66685 | 28289 ft | 439 kts | 315° |
| 2026-04-15 15:24 | 49.25634 | 10.63337 | 27707 ft | 432 kts | 315° |
| 2026-04-15 15:24 | 49.27687 | 10.60008 | 27018 ft | 428 kts | 314° |
| 2026-04-15 15:25 | 49.29727 | 10.56705 | 26322 ft | 425 kts | 314° |
| 2026-04-15 15:25 | 49.31761 | 10.53436 | 25645 ft | 422 kts | 314° |
| 2026-04-15 15:25 | 49.33788 | 10.50202 | 24972 ft | 420 kts | 314° |
| 2026-04-15 15:25 | 49.35794 | 10.46963 | 24287 ft | 417 kts | 311° |
| 2026-04-15 15:26 | 49.37524 | 10.43424 | 23827 ft | 412 kts | 305° |
| 2026-04-15 15:26 | 49.39144 | 10.39880 | 23628 ft | 399 kts | 305° |
| 2026-04-15 15:26 | 49.40715 | 10.36450 | 23466 ft | 388 kts | 305° |
| 2026-04-15 15:26 | 49.42256 | 10.33085 | 23140 ft | 382 kts | 305° |
| 2026-04-15 15:27 | 49.43771 | 10.29769 | 22626 ft | 376 kts | 304° |
| 2026-04-15 15:27 | 49.45261 | 10.26501 | 21839 ft | 371 kts | 304° |
| 2026-04-15 15:27 | 49.46722 | 10.23293 | 21466 ft | 372 kts | 304° |
| 2026-04-15 15:27 | 49.48218 | 10.20002 | 21086 ft | 371 kts | 304° |
| 2026-04-15 15:28 | 49.49673 | 10.16796 | 20703 ft | 369 kts | 304° |
| 2026-04-15 15:28 | 49.51155 | 10.13516 | 20325 ft | 367 kts | 304° |
| 2026-04-15 15:28 | 49.52590 | 10.10340 | 19953 ft | 365 kts | 304° |
| 2026-04-15 15:28 | 49.54036 | 10.07137 | 19583 ft | 364 kts | 303° |
| 2026-04-15 15:29 | 49.55476 | 10.03948 | 19217 ft | 361 kts | 303° |
| 2026-04-15 15:29 | 49.56905 | 10.00779 | 18853 ft | 359 kts | 303° |
| 2026-04-15 15:29 | 49.58340 | 9.97595 | 18479 ft | 357 kts | 303° |
| 2026-04-15 15:29 | 49.59737 | 9.94487 | 18115 ft | 355 kts | 303° |
| 2026-04-15 15:30 | 49.61156 | 9.91320 | 17749 ft | 354 kts | 303° |
| 2026-04-15 15:30 | 49.62531 | 9.88245 | 17390 ft | 352 kts | 303° |
| 2026-04-15 15:30 | 49.63932 | 9.85115 | 17027 ft | 350 kts | 303° |
| 2026-04-15 15:30 | 49.65317 | 9.82024 | 16670 ft | 348 kts | 303° |
| 2026-04-15 15:31 | 49.66693 | 9.78952 | 16311 ft | 347 kts | 303° |
| 2026-04-15 15:31 | 49.67973 | 9.76091 | 15979 ft | 345 kts | 303° |
| 2026-04-15 15:31 | 49.69333 | 9.73047 | 15620 ft | 344 kts | 303° |
| 2026-04-15 15:31 | 49.70685 | 9.70007 | 15264 ft | 342 kts | 303° |
| 2026-04-15 15:32 | 49.72031 | 9.66976 | 14913 ft | 341 kts | 303° |
| 2026-04-15 15:32 | 49.73366 | 9.63970 | 14569 ft | 339 kts | 303° |
| 2026-04-15 15:32 | 49.74702 | 9.60961 | 14218 ft | 337 kts | 303° |
| 2026-04-15 15:32 | 49.76027 | 9.57977 | 13872 ft | 336 kts | 303° |
| 2026-04-15 15:33 | 49.77315 | 9.55076 | 13663 ft | 327 kts | 304° |
| 2026-04-15 15:33 | 49.78597 | 9.52180 | 13536 ft | 315 kts | 303° |
| 2026-04-15 15:33 | 49.79789 | 9.49478 | 13398 ft | 294 kts | 303° |
| 2026-04-15 15:33 | 49.80905 | 9.46943 | 13270 ft | 275 kts | 303° |
| 2026-04-15 15:34 | 49.81956 | 9.44557 | 13030 ft | 264 kts | 303° |
| 2026-04-15 15:34 | 49.82981 | 9.42227 | 12599 ft | 260 kts | 303° |
| 2026-04-15 15:34 | 49.83994 | 9.39929 | 12116 ft | 257 kts | 303° |
| 2026-04-15 15:34 | 49.84998 | 9.37647 | 11613 ft | 256 kts | 303° |
| 2026-04-15 15:35 | 49.85978 | 9.35362 | 11240 ft | 255 kts | 309° |
| 2026-04-15 15:35 | 49.87360 | 9.33699 | 10874 ft | 259 kts | 336° |
| 2026-04-15 15:35 | 49.89101 | 9.32792 | 10494 ft | 262 kts | 343° |
| 2026-04-15 15:35 | 49.90849 | 9.32045 | 10096 ft | 266 kts | 344° |
| 2026-04-15 15:36 | 49.92647 | 9.31296 | 9695 ft | 269 kts | 344° |
| 2026-04-15 15:36 | 49.94470 | 9.30538 | 9292 ft | 273 kts | 344° |
| 2026-04-15 15:36 | 49.96304 | 9.29745 | 8882 ft | 274 kts | 339° |
| 2026-04-15 15:36 | 49.97979 | 9.28327 | 8493 ft | 274 kts | 325° |
| 2026-04-15 15:37 | 49.99508 | 9.26709 | 8329 ft | 258 kts | 324° |
| 2026-04-15 15:37 | 50.00964 | 9.25136 | 8144 ft | 252 kts | 324° |
| 2026-04-15 15:37 | 50.02395 | 9.23584 | 7891 ft | 250 kts | 324° |
| 2026-04-15 15:37 | 50.03812 | 9.22045 | 7608 ft | 248 kts | 324° |
| 2026-04-15 15:38 | 50.05224 | 9.20505 | 7324 ft | 247 kts | 324° |
| 2026-04-15 15:38 | 50.06628 | 9.18963 | 7038 ft | 246 kts | 324° |
| 2026-04-15 15:38 | 50.08026 | 9.17423 | 6736 ft | 246 kts | 324° |
| 2026-04-15 15:38 | 50.09296 | 9.15673 | 6330 ft | 247 kts | 302° |
| 2026-04-15 15:39 | 50.09966 | 9.13264 | 6105 ft | 241 kts | 286° |
| 2026-04-15 15:39 | 50.10427 | 9.10761 | 5839 ft | 240 kts | 284° |
| 2026-04-15 15:39 | 50.10860 | 9.08254 | 5558 ft | 240 kts | 284° |
| 2026-04-15 15:39 | 50.11289 | 9.05744 | 5262 ft | 239 kts | 284° |
| 2026-04-15 15:40 | 50.11714 | 9.03247 | 4977 ft | 238 kts | 284° |
| 2026-04-15 15:40 | 50.12135 | 9.00772 | 4995 ft | 238 kts | 284° |
| 2026-04-15 15:40 | 50.12560 | 8.98271 | 5006 ft | 239 kts | 283° |
| 2026-04-15 15:40 | 50.12678 | 8.95709 | 5015 ft | 238 kts | 259° |
| 2026-04-15 15:41 | 50.12192 | 8.93254 | 4904 ft | 238 kts | 249° |
| 2026-04-15 15:41 | 50.11617 | 8.90843 | 4618 ft | 237 kts | 249° |
| 2026-04-15 15:41 | 50.11047 | 8.88438 | 4312 ft | 237 kts | 249° |
| 2026-04-15 15:41 | 50.10482 | 8.86034 | 4003 ft | 235 kts | 249° |
| 2026-04-15 15:42 | 50.09928 | 8.83676 | 3696 ft | 226 kts | 249° |
| 2026-04-15 15:42 | 50.09402 | 8.81444 | 3408 ft | 214 kts | 248° |
| 2026-04-15 15:42 | 50.08897 | 8.79301 | 3143 ft | 204 kts | 248° |
| 2026-04-15 15:42 | 50.08418 | 8.77273 | 2862 ft | 195 kts | 248° |
| 2026-04-15 15:43 | 50.07963 | 8.75345 | 2603 ft | 186 kts | 248° |
| 2026-04-15 15:43 | 50.07536 | 8.73535 | 2384 ft | 165 kts | 248° |
| 2026-04-15 15:43 | 50.07175 | 8.71922 | 2128 ft | 152 kts | 252° |
| 2026-04-15 15:43 | 50.06962 | 8.70340 | 1822 ft | 147 kts | 256° |
| 2026-04-15 15:44 | 50.06745 | 8.68801 | 1584 ft | 144 kts | 255° |
| 2026-04-15 15:44 | 50.06498 | 8.67288 | 1342 ft | 144 kts | 252° |
| 2026-04-15 15:44 | 50.06208 | 8.65812 | 1239 ft | 143 kts | 249° |
| 2026-04-15 15:44 | 50.05868 | 8.64355 | 1107 ft | 143 kts | 248° |
| 2026-04-15 15:45 | 50.05527 | 8.62898 | 947 ft | 143 kts | 248° |
| 2026-04-15 15:45 | 50.05183 | 8.61452 | 809 ft | 143 kts | 248° |
| 2026-04-15 15:45 | 50.04828 | 8.60014 | 647 ft | 142 kts | 247° |
| 2026-04-15 15:45 | 50.04487 | 8.58596 | 451 ft | 142 kts | 248° |
| 2026-04-15 15:46 | 50.04147 | 8.57197 | 366 ft | 123 kts | 248° |
| 2026-04-15 15:46 | 50.03905 | 8.56165 | 357 ft | 84 kts | 250° |
| 2026-04-15 15:46 | 50.03774 | 8.55585 | 348 ft | 16 kts | 276° |
| 2026-04-15 15:46 | 50.03821 | 8.55531 | 353 ft | 8 kts | 342° |
| 2026-04-15 15:47 | 50.03877 | 8.55496 | 356 ft | 10 kts | 338° |
| 2026-04-15 15:47 | 50.03941 | 8.55506 | 356 ft | 10 kts | 48° |
| 2026-04-15 15:47 | 50.03970 | 8.55627 | 350 ft | 13 kts | 69° |
| 2026-04-15 15:47 | 50.04006 | 8.55770 | 350 ft | 15 kts | 69° |
| 2026-04-15 15:48 | 50.04044 | 8.55933 | 358 ft | 17 kts | 70° |
| 2026-04-15 15:48 | 50.04087 | 8.56114 | 359 ft | 19 kts | 70° |
| 2026-04-15 15:48 | 50.04131 | 8.56306 | 356 ft | 21 kts | 70° |
| 2026-04-15 15:48 | 50.04181 | 8.56508 | 362 ft | 22 kts | 67° |
| 2026-04-15 15:49 | 50.04229 | 8.56706 | 361 ft | 12 kts | 71° |
| 2026-04-15 15:49 | 50.04273 | 8.56804 | 363 ft | 11 kts | 17° |
| 2026-04-15 15:49 | 50.04354 | 8.56828 | 360 ft | 13 kts | 12° |
| 2026-04-15 15:49 | 50.04451 | 8.56857 | 359 ft | 16 kts | 9° |
| 2026-04-15 15:50 | 50.04567 | 8.56898 | 361 ft | 18 kts | 16° |
| 2026-04-15 15:50 | 50.04694 | 8.56963 | 364 ft | 13 kts | 23° |
| 2026-04-15 15:50 | 50.04785 | 8.57029 | 358 ft | 16 kts | 26° |
| 2026-04-15 15:50 | 50.04864 | 8.57081 | 362 ft | 8 kts | 11° |
| 2026-04-15 15:51 | 50.04886 | 8.57020 | 363 ft | 8 kts | 293° |
| 2026-04-15 15:51 | 50.04894 | 8.56995 | 360 ft | 0 kts | 296° |
| 2026-04-15 15:51 | 50.04895 | 8.56993 | 359 ft | 0 kts | 296° |
| 2026-04-15 15:51 | 50.04895 | 8.56994 | 356 ft | 0 kts | 295° |